Time;durP1;ratioP1;P1;durP2;ratioP2;P2;SDS_P1;SDS_P2;PMS_P1;PMS_P2;Temp;Humidity;BMP_temperature;BMP_pressure;BME280_temperature;BME280_humidity;BME280_pressure;Samples;Min_cycle;Max_cycle;Signal;HPM_P1;HPM_P2
2022/07/16 00:03:44;;;;;;;0.80;0.80;;;;;;;;;;5075214;27;92723;-62
2022/07/16 00:06:10;;;;;;;0.70;0.70;;;;;;;;;;5077843;27;92326;-62
2022/07/16 00:08:36;;;;;;;0.90;0.90;;;;;;;;;;5094468;27;93504;-62
2022/07/16 00:11:03;;;;;;;0.80;0.80;;;;;;;;;;5093956;27;94944;-62
2022/07/16 00:13:29;;;;;;;0.80;0.80;;;;;;;;;;5095202;27;95569;-62
2022/07/16 00:15:56;;;;;;;1.15;0.80;;;;;;;;;;5068282;27;93682;-63
2022/07/16 00:21:07;;;;;;;0.98;0.90;;;;;;;;;;5074909;27;93555;-62
2022/07/16 00:23:33;;;;;;;1.42;0.90;;;;;;;;;;5075277;27;93600;-64
2022/07/16 00:26:00;;;;;;;1.27;0.70;;;;;;;;;;5075002;27;92491;-62
2022/07/16 00:28:26;;;;;;;2.13;1.10;;;;;;;;;;5078848;27;93979;-62
2022/07/16 00:30:52;;;;;;;1.48;0.90;;;;;;;;;;5074748;27;92415;-62
2022/07/16 00:33:19;;;;;;;1.63;1.08;;;;;;;;;;5074726;27;93156;-62
2022/07/16 00:35:45;;;;;;;0.80;0.80;;;;;;;;;;5072289;27;94799;-63
2022/07/16 00:38:12;;;;;;;0.63;0.63;;;;;;;;;;5056428;27;92521;-63
2022/07/16 00:40:38;;;;;;;0.85;0.80;;;;;;;;;;5074423;27;93473;-62
2022/07/16 00:43:09;;;;;;;1.50;0.90;;;;;;;;;;5074262;27;93454;-62
2022/07/16 00:45:35;;;;;;;1.00;0.70;;;;;;;;;;5074892;27;92456;-62
2022/07/16 00:48:02;;;;;;;1.42;0.85;;;;;;;;;;5075178;27;94172;-62
2022/07/16 00:50:29;;;;;;;2.50;0.80;;;;;;;;;;5077470;27;93242;-62
2022/07/16 00:52:55;;;;;;;1.42;1.00;;;;;;;;;;5074468;27;93545;-62
2022/07/16 00:55:21;;;;;;;1.42;0.90;;;;;;;;;;5056297;27;93842;-62
2022/07/16 00:57:47;;;;;;;0.90;0.90;;;;;;;;;;5074439;27;92417;-62
2022/07/16 01:00:14;;;;;;;0.80;0.80;;;;;;;;;;5072806;27;94845;-62
2022/07/16 01:02:40;;;;;;;0.90;0.90;;;;;;;;;;5073967;27;93646;-62
2022/07/16 01:05:07;;;;;;;0.80;0.80;;;;;;;;;;5074471;27;92358;-62
2022/07/16 01:07:33;;;;;;;0.68;0.68;;;;;;;;;;5073725;27;93226;-62
2022/07/16 01:10:01;;;;;;;1.27;0.90;;;;;;;;;;5073951;27;93497;-62
2022/07/16 01:12:27;;;;;;;2.35;0.88;;;;;;;;;;5079775;27;92384;-62
2022/07/16 01:14:54;;;;;;;0.80;0.73;;;;;;;;;;5077572;27;93823;-62
2022/07/16 01:17:21;;;;;;;1.08;0.90;;;;;;;;;;5099328;27;91700;-62
2022/07/16 01:19:47;;;;;;;0.85;0.82;;;;;;;;;;5098501;27;92390;-62
2022/07/16 01:22:21;;;;;;;1.40;0.98;;;;;;;;;;5079757;27;93639;-62
2022/07/16 01:24:48;;;;;;;1.20;1.10;;;;;;;;;;5096788;27;94818;-62
2022/07/16 01:27:15;;;;;;;1.17;0.85;;;;;;;;;;5098149;27;94218;-62
2022/07/16 01:29:41;;;;;;;0.82;0.70;;;;;;;;;;5098114;27;93053;-62
2022/07/16 01:32:08;;;;;;;1.92;0.80;;;;;;;;;;5101141;27;92502;-62
2022/07/16 01:34:34;;;;;;;0.95;0.90;;;;;;;;;;5097214;27;94885;-62
2022/07/16 01:37:03;;;;;;;1.42;1.15;;;;;;;;;;5097627;27;93734;-62
2022/07/16 01:39:30;;;;;;;3.33;1.13;;;;;;;;;;5098003;27;93442;-62
2022/07/16 01:41:57;;;;;;;1.10;0.82;;;;;;;;;;5098215;27;93078;-63
2022/07/16 01:44:25;;;;;;;0.70;0.70;;;;;;;;;;5098012;27;92565;-62
2022/07/16 01:46:52;;;;;;;0.95;0.90;;;;;;;;;;5097334;27;93158;-62
2022/07/16 01:49:18;;;;;;;1.67;0.90;;;;;;;;;;5095862;27;95894;-62
2022/07/16 01:51:45;;;;;;;1.42;0.90;;;;;;;;;;5079703;27;92491;-63
2022/07/16 01:54:11;;;;;;;0.98;0.80;;;;;;;;;;5082285;27;93212;-63
2022/07/16 01:56:37;;;;;;;1.95;1.00;;;;;;;;;;5097701;27;92460;-62
2022/07/16 01:59:04;;;;;;;2.00;1.05;;;;;;;;;;5097648;27;93268;-62
2022/07/16 02:01:30;;;;;;;2.20;1.08;;;;;;;;;;5097493;27;92379;-63
2022/07/16 02:03:57;;;;;;;1.42;0.95;;;;;;;;;;5097966;27;92507;-62
2022/07/16 02:06:24;;;;;;;0.85;0.80;;;;;;;;;;5097302;27;93121;-63
2022/07/16 02:08:50;;;;;;;1.42;1.00;;;;;;;;;;5076768;27;93690;-62
2022/07/16 02:11:16;;;;;;;1.35;1.05;;;;;;;;;;5076932;27;92654;-62
2022/07/16 02:13:43;;;;;;;1.02;0.80;;;;;;;;;;5075219;27;94813;-62
2022/07/16 02:16:10;;;;;;;1.73;1.02;;;;;;;;;;5080152;27;94685;-62
2022/07/16 02:18:36;;;;;;;1.80;0.80;;;;;;;;;;5076868;27;93188;-62
2022/07/16 02:21:03;;;;;;;0.75;0.70;;;;;;;;;;5058308;27;93723;-62
2022/07/16 02:23:30;;;;;;;1.20;0.82;;;;;;;;;;5075986;27;92415;-62
2022/07/16 02:25:56;;;;;;;1.88;1.00;;;;;;;;;;5076666;27;93241;-63
2022/07/16 02:28:22;;;;;;;1.40;0.85;;;;;;;;;;5076932;27;94732;-62
2022/07/16 02:30:49;;;;;;;1.23;0.77;;;;;;;;;;5077288;27;91652;-63
2022/07/16 02:33:16;;;;;;;1.45;0.93;;;;;;;;;;5076162;27;92350;-63
2022/07/16 02:35:43;;;;;;;1.30;0.80;;;;;;;;;;5075817;27;93436;-62
2022/07/16 02:38:11;;;;;;;0.77;0.77;;;;;;;;;;5078071;27;94777;-62
2022/07/16 02:40:38;;;;;;;0.82;0.80;;;;;;;;;;5076220;27;93911;-63
2022/07/16 02:43:06;;;;;;;0.90;0.90;;;;;;;;;;5058546;27;92419;-62
2022/07/16 02:45:33;;;;;;;1.52;0.80;;;;;;;;;;5076478;27;92381;-62
2022/07/16 02:48:00;;;;;;;1.30;1.00;;;;;;;;;;5076072;27;93490;-62
2022/07/16 02:50:27;;;;;;;0.90;0.90;;;;;;;;;;5076057;27;92453;-62
2022/07/16 02:52:54;;;;;;;0.80;0.80;;;;;;;;;;5057807;27;92990;-62
2022/07/16 02:55:21;;;;;;;1.25;1.00;;;;;;;;;;5076750;27;92784;-62
2022/07/16 02:57:47;;;;;;;1.55;1.00;;;;;;;;;;5075978;27;92360;-62
2022/07/16 03:00:14;;;;;;;0.93;0.93;;;;;;;;;;5060998;27;93096;-62
2022/07/16 03:02:40;;;;;;;0.90;0.90;;;;;;;;;;5074539;27;94744;-62
2022/07/16 03:05:08;;;;;;;1.05;0.88;;;;;;;;;;5076068;27;95902;-62
2022/07/16 03:07:34;;;;;;;0.93;0.85;;;;;;;;;;5076478;27;92401;-62
2022/07/16 03:10:01;;;;;;;1.25;0.90;;;;;;;;;;5076254;27;92437;-62
2022/07/16 03:12:27;;;;;;;1.13;0.80;;;;;;;;;;5075790;27;93344;-62
2022/07/16 03:14:53;;;;;;;1.75;1.05;;;;;;;;;;5075641;27;93369;-62
2022/07/16 03:17:20;;;;;;;1.58;0.98;;;;;;;;;;5096019;27;92468;-62
2022/07/16 03:19:46;;;;;;;2.78;0.90;;;;;;;;;;5099815;27;93226;-62
2022/07/16 03:22:12;;;;;;;5.30;1.20;;;;;;;;;;5096336;27;92398;-63
2022/07/16 03:24:39;;;;;;;0.70;0.70;;;;;;;;;;5096116;27;93232;-62
2022/07/16 03:27:05;;;;;;;1.48;0.85;;;;;;;;;;5076020;27;96390;-62
2022/07/16 03:29:32;;;;;;;1.42;1.13;;;;;;;;;;5096273;27;92415;-62
2022/07/16 03:31:58;;;;;;;1.10;0.95;;;;;;;;;;5096133;27;92992;-62
2022/07/16 03:34:24;;;;;;;1.15;0.95;;;;;;;;;;5094051;27;93591;-63
2022/07/16 03:36:51;;;;;;;1.70;0.90;;;;;;;;;;5095926;27;92444;-62
2022/07/16 03:39:17;;;;;;;1.02;0.90;;;;;;;;;;5096020;27;93221;-62
2022/07/16 03:41:43;;;;;;;1.00;0.90;;;;;;;;;;5098908;27;94007;-63
2022/07/16 03:44:12;;;;;;;2.80;0.90;;;;;;;;;;5096208;27;93530;-62
2022/07/16 03:46:39;;;;;;;1.13;0.90;;;;;;;;;;5095284;27;93605;-62
2022/07/16 03:49:05;;;;;;;0.90;0.80;;;;;;;;;;5096168;27;92454;-62
2022/07/16 03:51:32;;;;;;;1.55;0.98;;;;;;;;;;5094349;27;94752;-62
2022/07/16 03:53:58;;;;;;;1.10;1.00;;;;;;;;;;5095719;27;93166;-62
2022/07/16 03:56:24;;;;;;;0.80;0.80;;;;;;;;;;5095932;27;92846;-62
2022/07/16 03:58:51;;;;;;;0.93;0.88;;;;;;;;;;5096354;27;94671;-62
2022/07/16 04:01:17;;;;;;;1.05;0.98;;;;;;;;;;5095793;27;93349;-62
2022/07/16 04:03:44;;;;;;;1.13;1.00;;;;;;;;;;5098660;27;93137;-62
2022/07/16 04:06:10;;;;;;;1.75;1.15;;;;;;;;;;5095360;27;93712;-62
2022/07/16 04:08:36;;;;;;;0.80;0.80;;;;;;;;;;5076199;27;91843;-63
2022/07/16 04:11:03;;;;;;;1.13;1.00;;;;;;;;;;5075077;27;92873;-62
2022/07/16 04:13:30;;;;;;;1.33;0.90;;;;;;;;;;5075290;27;94504;-62
2022/07/16 04:15:56;;;;;;;3.17;0.90;;;;;;;;;;5073746;27;94884;-62
2022/07/16 04:18:22;;;;;;;0.90;0.90;;;;;;;;;;5075277;27;96583;-62
2022/07/16 04:20:49;;;;;;;1.75;1.17;;;;;;;;;;5074700;27;93517;-63
2022/07/16 04:23:15;;;;;;;0.85;0.80;;;;;;;;;;5056432;27;92443;-62
2022/07/16 04:25:42;;;;;;;1.48;0.95;;;;;;;;;;5078224;27;92902;-62
2022/07/16 04:28:08;;;;;;;1.45;1.00;;;;;;;;;;5075398;27;92469;-62
2022/07/16 04:30:34;;;;;;;1.10;0.90;;;;;;;;;;5074945;27;93231;-62
2022/07/16 04:33:00;;;;;;;0.70;0.70;;;;;;;;;;5075595;27;92792;-63
2022/07/16 04:35:27;;;;;;;1.08;0.90;;;;;;;;;;5074362;27;92347;-62
2022/07/16 04:37:53;;;;;;;1.88;1.00;;;;;;;;;;5075012;27;94432;-62
2022/07/16 04:40:19;;;;;;;1.73;1.17;;;;;;;;;;5073335;27;95823;-62
2022/07/16 04:42:46;;;;;;;2.95;0.90;;;;;;;;;;5074296;27;92402;-62
2022/07/16 04:45:12;;;;;;;0.90;0.70;;;;;;;;;;5075166;27;93167;-62
2022/07/16 04:47:39;;;;;;;5.40;1.08;;;;;;;;;;5081412;27;93572;-63
2022/07/16 04:50:06;;;;;;;0.93;0.82;;;;;;;;;;5077968;27;93249;-62
2022/07/16 04:52:32;;;;;;;0.70;0.70;;;;;;;;;;5078274;27;94816;-62
2022/07/16 04:54:59;;;;;;;0.70;0.70;;;;;;;;;;5077892;27;92505;-62
2022/07/16 04:57:25;;;;;;;1.10;0.80;;;;;;;;;;5078904;27;94283;-62
2022/07/16 04:59:52;;;;;;;0.77;0.77;;;;;;;;;;5078091;27;93263;-62
2022/07/16 05:05:03;;;;;;;0.80;0.80;;;;;;;;;;5076631;27;94917;-62
2022/07/16 05:07:30;;;;;;;2.10;0.85;;;;;;;;;;5076949;27;93377;-62
2022/07/16 05:09:56;;;;;;;1.23;0.63;;;;;;;;;;5062453;27;92429;-62
2022/07/16 05:12:23;;;;;;;0.82;0.70;;;;;;;;;;5077347;27;93458;-63
2022/07/16 05:14:49;;;;;;;0.82;0.80;;;;;;;;;;5077217;27;92564;-62
2022/07/16 05:17:15;;;;;;;1.38;0.93;;;;;;;;;;5077336;27;93174;-62
2022/07/16 05:19:42;;;;;;;0.60;0.60;;;;;;;;;;5077547;27;93373;-62
2022/07/16 05:22:08;;;;;;;1.08;0.90;;;;;;;;;;5078295;27;91778;-62
2022/07/16 05:24:36;;;;;;;1.40;0.80;;;;;;;;;;5077396;27;92339;-62
2022/07/16 05:27:02;;;;;;;1.30;0.90;;;;;;;;;;5077601;27;92421;-62
2022/07/16 05:29:28;;;;;;;1.05;0.88;;;;;;;;;;5078982;27;94774;-62
2022/07/16 05:31:55;;;;;;;1.83;0.80;;;;;;;;;;5077033;27;93465;-63
2022/07/16 05:34:21;;;;;;;0.60;0.60;;;;;;;;;;5077480;27;92480;-62
2022/07/16 05:36:47;;;;;;;0.50;0.50;;;;;;;;;;5077276;27;93061;-62
2022/07/16 05:39:14;;;;;;;0.93;0.80;;;;;;;;;;5077068;27;93508;-62
2022/07/16 05:41:41;;;;;;;0.80;0.77;;;;;;;;;;5077359;27;92500;-62
2022/07/16 05:44:07;;;;;;;0.98;0.82;;;;;;;;;;5077295;27;93362;-62
2022/07/16 05:46:33;;;;;;;1.35;0.70;;;;;;;;;;5078182;27;93753;-62
2022/07/16 05:49:00;;;;;;;0.77;0.77;;;;;;;;;;5077107;27;92425;-62
2022/07/16 05:51:26;;;;;;;0.95;0.85;;;;;;;;;;5080271;27;93334;-62
2022/07/16 05:53:52;;;;;;;1.83;0.75;;;;;;;;;;5075498;27;94814;-63
2022/07/16 05:56:18;;;;;;;2.10;0.70;;;;;;;;;;5077028;27;95566;-62
2022/07/16 05:58:45;;;;;;;0.95;0.68;;;;;;;;;;5075990;27;93424;-62
2022/07/16 06:01:11;;;;;;;0.98;0.60;;;;;;;;;;5076638;27;92558;-62
2022/07/16 06:03:37;;;;;;;2.08;0.80;;;;;;;;;;5076655;27;93148;-62
2022/07/16 06:06:04;;;;;;;1.05;0.80;;;;;;;;;;5076717;27;93393;-62
2022/07/16 06:08:30;;;;;;;2.20;0.90;;;;;;;;;;5077293;27;92423;-63
2022/07/16 06:10:56;;;;;;;1.10;0.70;;;;;;;;;;5077263;27;93478;-62
2022/07/16 06:13:22;;;;;;;1.33;0.60;;;;;;;;;;5080129;27;93316;-62
2022/07/16 06:15:49;;;;;;;0.80;0.80;;;;;;;;;;5077133;27;94293;-63
2022/07/16 06:18:15;;;;;;;1.45;0.85;;;;;;;;;;5074885;27;96034;-62
2022/07/16 06:20:41;;;;;;;1.23;0.65;;;;;;;;;;5076791;27;92489;-62
2022/07/16 06:23:08;;;;;;;0.70;0.70;;;;;;;;;;5077323;27;94186;-62
2022/07/16 06:25:34;;;;;;;0.90;0.70;;;;;;;;;;5076517;27;93224;-62
2022/07/16 06:28:00;;;;;;;1.25;0.70;;;;;;;;;;5076595;27;92443;-62
2022/07/16 06:30:27;;;;;;;0.60;0.60;;;;;;;;;;5076692;27;93510;-62
2022/07/16 06:32:55;;;;;;;0.85;0.85;;;;;;;;;;5076549;27;93485;-62
2022/07/16 06:35:21;;;;;;;2.90;0.82;;;;;;;;;;5079642;27;91700;-62
2022/07/16 06:37:48;;;;;;;1.65;0.85;;;;;;;;;;5076520;27;93731;-62
2022/07/16 06:40:14;;;;;;;1.00;0.90;;;;;;;;;;5076263;27;92455;-62
2022/07/16 06:42:40;;;;;;;0.73;0.65;;;;;;;;;;5075295;27;94743;-63
2022/07/16 06:45:07;;;;;;;0.80;0.73;;;;;;;;;;5076868;27;94758;-63
2022/07/16 06:47:34;;;;;;;1.48;0.75;;;;;;;;;;5076721;27;92491;-62
2022/07/16 06:50:00;;;;;;;2.03;0.85;;;;;;;;;;5075947;27;93378;-62
2022/07/16 06:52:26;;;;;;;2.38;0.80;;;;;;;;;;5075981;27;93828;-62
2022/07/16 06:54:53;;;;;;;1.10;0.70;;;;;;;;;;5076254;27;92483;-62
2022/07/16 06:57:20;;;;;;;0.73;0.70;;;;;;;;;;5079145;27;93606;-62
2022/07/16 06:59:46;;;;;;;1.00;0.85;;;;;;;;;;5076520;27;91666;-62
2022/07/16 07:02:13;;;;;;;2.40;0.68;;;;;;;;;;5076618;27;93575;-62
2022/07/16 07:04:40;;;;;;;1.42;0.80;;;;;;;;;;5075382;27;93686;-62
2022/07/16 07:07:06;;;;;;;0.77;0.70;;;;;;;;;;5074855;27;94791;-62
2022/07/16 07:09:33;;;;;;;1.33;0.98;;;;;;;;;;5058146;27;95602;-62
2022/07/16 07:11:59;;;;;;;0.70;0.70;;;;;;;;;;5075801;27;95028;-62
2022/07/16 07:14:26;;;;;;;0.60;0.60;;;;;;;;;;5076075;27;92420;-62
2022/07/16 07:16:59;;;;;;;0.95;0.70;;;;;;;;;;5075831;27;93165;-62
2022/07/16 07:19:25;;;;;;;1.95;0.75;;;;;;;;;;5078544;27;93878;-62
2022/07/16 07:21:52;;;;;;;1.33;0.88;;;;;;;;;;5075870;27;93425;-62
2022/07/16 07:24:18;;;;;;;1.42;0.73;;;;;;;;;;5076116;27;93139;-63
2022/07/16 07:27:05;;;;;;;0.60;0.60;;;;;;;;;;5076007;27;92390;-62
2022/07/16 07:29:32;;;;;;;1.30;0.60;;;;;;;;;;5075833;27;93517;-62
2022/07/16 07:31:58;;;;;;;0.73;0.60;;;;;;;;;;5055742;27;95627;-62
2022/07/16 07:34:24;;;;;;;0.90;0.70;;;;;;;;;;5075012;27;92447;-63
2022/07/16 07:36:51;;;;;;;1.10;0.88;;;;;;;;;;5076068;27;94252;-62
2022/07/16 07:39:18;;;;;;;0.98;0.70;;;;;;;;;;5078515;27;93330;-62
2022/07/16 07:41:45;;;;;;;0.93;0.60;;;;;;;;;;5075526;27;93053;-62
2022/07/16 07:44:11;;;;;;;0.90;0.70;;;;;;;;;;5075266;27;93444;-62
2022/07/16 07:46:37;;;;;;;1.08;0.70;;;;;;;;;;5075911;27;92516;-62
2022/07/16 07:49:04;;;;;;;1.48;0.82;;;;;;;;;;5076642;27;94157;-62
2022/07/16 07:51:30;;;;;;;1.65;0.80;;;;;;;;;;5075053;27;93733;-62
2022/07/16 07:53:56;;;;;;;0.52;0.52;;;;;;;;;;5075453;27;92444;-62
2022/07/16 07:56:23;;;;;;;1.00;0.73;;;;;;;;;;5073620;27;94827;-62
2022/07/16 07:58:49;;;;;;;0.68;0.60;;;;;;;;;;5075829;27;94914;-62
2022/07/16 08:01:16;;;;;;;1.58;0.80;;;;;;;;;;5078381;27;92390;-63
2022/07/16 08:03:51;;;;;;;0.65;0.60;;;;;;;;;;5075112;27;93932;-63
2022/07/16 08:06:17;;;;;;;1.33;0.70;;;;;;;;;;5075167;27;92625;-63
2022/07/16 08:08:44;;;;;;;2.65;1.27;;;;;;;;;;5075310;27;93272;-62
2022/07/16 08:11:11;;;;;;;0.80;0.70;;;;;;;;;;5074992;27;93799;-62
2022/07/16 08:13:37;;;;;;;0.70;0.60;;;;;;;;;;5075735;27;91588;-62
2022/07/16 08:16:24;;;;;;;0.95;0.60;;;;;;;;;;5075763;27;92382;-62
2022/07/16 08:18:50;;;;;;;0.50;0.47;;;;;;;;;;5075432;27;94750;-62
2022/07/16 08:21:16;;;;;;;0.73;0.60;;;;;;;;;;5076178;27;94930;-62
2022/07/16 08:26:28;;;;;;;0.63;0.60;;;;;;;;;;5078841;27;92476;-62
2022/07/16 08:28:54;;;;;;;0.70;0.70;;;;;;;;;;5078750;27;93112;-62
2022/07/16 08:31:20;;;;;;;0.60;0.60;;;;;;;;;;5078005;27;92381;-63
2022/07/16 08:33:50;;;;;;;1.02;0.80;;;;;;;;;;5079229;27;92565;-63
2022/07/16 08:36:16;;;;;;;0.85;0.60;;;;;;;;;;5088736;27;93668;-62
2022/07/16 08:38:43;;;;;;;1.40;0.75;;;;;;;;;;5090535;27;93095;-62
2022/07/16 08:41:09;;;;;;;1.05;0.60;;;;;;;;;;5078389;27;92502;-62
2022/07/16 08:43:36;;;;;;;0.93;0.60;;;;;;;;;;5092812;27;92369;-62
2022/07/16 08:46:02;;;;;;;0.40;0.40;;;;;;;;;;5090785;27;95681;-63
2022/07/16 08:48:30;;;;;;;0.50;0.50;;;;;;;;;;5078839;27;96636;-62
2022/07/16 08:50:58;;;;;;;0.93;0.70;;;;;;;;;;5082356;27;93955;-62
2022/07/16 08:53:24;;;;;;;1.75;0.80;;;;;;;;;;5099013;27;92551;-63
2022/07/16 08:55:54;;;;;;;1.50;0.80;;;;;;;;;;5098862;27;93614;-62
2022/07/16 08:58:21;;;;;;;;;;;;;;;;;;5099243;27;93494;-62
2022/07/16 09:00:47;;;;;;;1.23;0.80;;;;;;;;;;5099893;27;118508;-62
2022/07/16 09:03:14;;;;;;;0.90;0.52;;;;;;;;;;5099107;27;93485;-62
2022/07/16 09:05:41;;;;;;;0.95;0.60;;;;;;;;;;5098295;27;93371;-63
2022/07/16 09:08:07;;;;;;;0.65;0.57;;;;;;;;;;5096641;27;92403;-62
2022/07/16 09:10:35;;;;;;;0.50;0.50;;;;;;;;;;5076504;27;97166;-62
2022/07/16 09:13:02;;;;;;;0.60;0.60;;;;;;;;;;5077575;27;92403;-62
2022/07/16 09:15:35;;;;;;;0.63;0.63;;;;;;;;;;5078154;27;93407;-62
2022/07/16 09:18:06;;;;;;;0.70;0.52;;;;;;;;;;5059959;27;94441;-63
2022/07/16 09:20:33;;;;;;;0.50;0.50;;;;;;;;;;5077945;27;92350;-62
2022/07/16 09:22:59;;;;;;;0.68;0.68;;;;;;;;;;5078521;27;93978;-63
2022/07/16 09:25:25;;;;;;;0.43;0.43;;;;;;;;;;5077661;27;94327;-63
2022/07/16 09:27:58;;;;;;;1.65;0.55;;;;;;;;;;5079004;27;91601;-62
2022/07/16 09:30:26;;;;;;;1.00;0.50;;;;;;;;;;5080696;27;92473;-62
2022/07/16 09:32:52;;;;;;;1.27;0.80;;;;;;;;;;5076614;27;92444;-62
2022/07/16 09:35:19;;;;;;;0.52;0.50;;;;;;;;;;5054007;27;94852;-63
2022/07/16 09:37:59;;;;;;;1.55;0.80;;;;;;;;;;5057035;27;93758;-62
2022/07/16 09:40:35;;;;;;;0.45;0.40;;;;;;;;;;5057537;27;92405;-64
2022/07/16 09:43:02;;;;;;;0.68;0.65;;;;;;;;;;5057052;27;93325;-63
2022/07/16 09:45:28;;;;;;;0.73;0.52;;;;;;;;;;5057581;27;94383;-64
2022/07/16 09:47:55;;;;;;;1.48;0.60;;;;;;;;;;5057187;27;92722;-63
2022/07/16 09:50:21;;;;;;;0.75;0.50;;;;;;;;;;5059960;27;92337;-62
2022/07/16 09:52:48;;;;;;;0.77;0.57;;;;;;;;;;5057791;27;91732;-62
2022/07/16 09:55:14;;;;;;;0.90;0.57;;;;;;;;;;5056918;27;92480;-63
2022/07/16 09:57:42;;;;;;;1.00;0.52;;;;;;;;;;5056676;27;93567;-62
2022/07/16 10:00:09;;;;;;;0.50;0.50;;;;;;;;;;5053963;27;94828;-62
2022/07/16 10:02:35;;;;;;;0.40;0.40;;;;;;;;;;5056773;27;95518;-62
2022/07/16 10:05:01;;;;;;;0.50;0.50;;;;;;;;;;5056145;27;92409;-62
2022/07/16 10:07:31;;;;;;;0.90;0.43;;;;;;;;;;5057078;27;92400;-62
2022/07/16 10:09:58;;;;;;;0.77;0.50;;;;;;;;;;5056735;27;93412;-63
2022/07/16 10:12:26;;;;;;;0.60;0.50;;;;;;;;;;5059768;27;93987;-62
2022/07/16 10:14:53;;;;;;;0.60;0.60;;;;;;;;;;5056873;27;93415;-62
2022/07/16 10:17:22;;;;;;;0.77;0.70;;;;;;;;;;5077434;27;93740;-62
2022/07/16 10:19:56;;;;;;;1.27;0.60;;;;;;;;;;5076364;27;92475;-62
2022/07/16 10:22:30;;;;;;;0.50;0.50;;;;;;;;;;5077470;27;92980;-63
2022/07/16 10:24:57;;;;;;;0.68;0.57;;;;;;;;;;5075178;27;95884;-62
2022/07/16 10:27:26;;;;;;;0.98;0.60;;;;;;;;;;5077116;27;92540;-62
2022/07/16 10:30:08;;;;;;;0.45;0.45;;;;;;;;;;5076949;27;93278;-63
2022/07/16 10:32:53;;;;;;;0.60;0.60;;;;;;;;;;5076767;27;92388;-64
2022/07/16 10:35:27;;;;;;;0.82;0.70;;;;;;;;;;5088594;27;92468;-62
2022/07/16 10:38:03;;;;;;;0.70;0.52;;;;;;;;;;5097573;27;94452;-62
2022/07/16 10:41:03;;;;;;;0.60;0.50;;;;;;;;;;5097137;27;92610;-62
2022/07/16 10:43:29;;;;;;;2.00;0.55;;;;;;;;;;5081517;27;93354;-62
2022/07/16 10:45:58;;;;;;;0.43;0.43;;;;;;;;;;5076311;27;93555;-62
2022/07/16 10:48:25;;;;;;;0.30;0.30;;;;;;;;;;5076376;27;92458;-62
2022/07/16 10:51:10;;;;;;;0.80;0.40;;;;;;;;;;5074543;27;94739;-62
2022/07/16 10:54:01;;;;;;;0.93;0.45;;;;;;;;;;5076751;27;94451;-62
2022/07/16 10:56:34;;;;;;;2.90;0.57;;;;;;;;;;5076264;27;92927;-62
2022/07/16 10:59:04;;;;;;;0.40;0.40;;;;;;;;;;5079549;27;95312;-62
2022/07/16 11:01:31;;;;;;;2.15;0.52;;;;;;;;;;5076564;27;92481;-62
2022/07/16 11:03:57;;;;;;;0.65;0.50;;;;;;;;;;5076039;27;93322;-62
2022/07/16 11:06:24;;;;;;;0.57;0.57;;;;;;;;;;5058009;27;93547;-62
2022/07/16 11:08:57;;;;;;;0.60;0.40;;;;;;;;;;5076625;27;91786;-62
2022/07/16 11:11:31;;;;;;;0.40;0.40;;;;;;;;;;5075978;27;92417;-62
2022/07/16 11:13:58;;;;;;;0.77;0.60;;;;;;;;;;5076662;27;94448;-62
2022/07/16 11:16:25;;;;;;;0.52;0.40;;;;;;;;;;5075046;27;94907;-62
2022/07/16 11:18:52;;;;;;;0.35;0.35;;;;;;;;;;5076328;27;97104;-62
2022/07/16 11:21:18;;;;;;;0.63;0.50;;;;;;;;;;5079475;27;94546;-62
2022/07/16 11:23:58;;;;;;;0.93;0.60;;;;;;;;;;5076380;27;94176;-62
2022/07/16 11:26:25;;;;;;;1.10;0.70;;;;;;;;;;5075389;27;93782;-63
2022/07/16 11:28:55;;;;;;;1.05;0.47;;;;;;;;;;5075662;27;92404;-62
2022/07/16 11:31:21;;;;;;;;;;;;;;;;;;5076707;27;95983;-63
2022/07/16 11:33:48;;;;;;;0.73;0.50;;;;;;;;;;5077196;27;123553;-62
2022/07/16 11:36:15;;;;;;;0.88;0.65;;;;;;;;;;5075684;27;92339;-62
2022/07/16 11:38:41;;;;;;;0.65;0.50;;;;;;;;;;5075512;27;93478;-62
2022/07/16 11:41:08;;;;;;;0.47;0.47;;;;;;;;;;5073654;27;95790;-62
2022/07/16 11:43:36;;;;;;;0.30;0.30;;;;;;;;;;5078981;27;92442;-62
2022/07/16 11:46:02;;;;;;;1.23;0.60;;;;;;;;;;5075756;27;93612;-62
2022/07/16 11:48:38;;;;;;;1.33;0.68;;;;;;;;;;5075599;27;92416;-63
2022/07/16 11:51:08;;;;;;;0.47;0.43;;;;;;;;;;5057220;27;93153;-62
2022/07/16 11:53:37;;;;;;;;;;;;;;;;;;5075784;27;93532;-63
2022/07/16 11:56:05;;;;;;;0.40;0.40;;;;;;;;;;5075066;27;117794;-62
2022/07/16 11:58:32;;;;;;;0.50;0.50;;;;;;;;;;5075755;27;93197;-63
2022/07/16 12:00:58;;;;;;;1.23;0.57;;;;;;;;;;5075678;27;94838;-63
2022/07/16 12:03:24;;;;;;;1.13;0.65;;;;;;;;;;5078721;27;92445;-62
2022/07/16 12:06:03;;;;;;;0.82;0.60;;;;;;;;;;5084526;27;96795;-62
2022/07/16 12:08:32;;;;;;;0.30;0.30;;;;;;;;;;5096610;27;92377;-62
2022/07/16 12:11:02;;;;;;;1.52;0.60;;;;;;;;;;5095729;27;93480;-63
2022/07/16 12:13:28;;;;;;;0.65;0.35;;;;;;;;;;5095742;27;93582;-62
2022/07/16 12:16:01;;;;;;;1.10;0.45;;;;;;;;;;5087662;27;92423;-62
2022/07/16 12:18:28;;;;;;;0.65;0.50;;;;;;;;;;5075167;27;93095;-63
2022/07/16 12:21:14;;;;;;;0.60;0.60;;;;;;;;;;5074902;27;93496;-62
2022/07/16 12:23:44;;;;;;;0.52;0.47;;;;;;;;;;5075241;27;91717;-62
2022/07/16 12:26:10;;;;;;;8.38;0.50;;;;;;;;;;5078164;27;92764;-63
2022/07/16 12:28:36;;;;;;;0.43;0.43;;;;;;;;;;5075395;27;92397;-64
2022/07/16 12:31:07;;;;;;;0.80;0.50;;;;;;;;;;5073473;27;94669;-62
2022/07/16 12:33:33;;;;;;;0.55;0.40;;;;;;;;;;5075192;27;94477;-62
2022/07/16 12:36:00;;;;;;;0.60;0.40;;;;;;;;;;5074338;27;92421;-62
2022/07/16 12:38:38;;;;;;;1.38;0.50;;;;;;;;;;5074785;27;93290;-63
2022/07/16 12:41:11;;;;;;;0.70;0.40;;;;;;;;;;5075292;27;94836;-62
2022/07/16 12:43:39;;;;;;;0.65;0.50;;;;;;;;;;5091814;27;92445;-62
2022/07/16 12:46:07;;;;;;;0.63;0.43;;;;;;;;;;5085451;27;93433;-62
2022/07/16 12:48:47;;;;;;;1.15;0.60;;;;;;;;;;5078666;27;93797;-62
2022/07/16 12:51:15;;;;;;;1.33;0.60;;;;;;;;;;5074951;27;92615;-63
2022/07/16 12:53:42;;;;;;;0.40;0.40;;;;;;;;;;5074539;27;93606;-62
2022/07/16 12:58:53;;;;;;;1.55;0.43;;;;;;;;;;5074536;27;95972;-62
2022/07/16 13:01:21;;;;;;;1.15;0.50;;;;;;;;;;5074999;27;94577;-63
2022/07/16 13:03:47;;;;;;;0.40;0.40;;;;;;;;;;5074561;27;92436;-62
2022/07/16 13:06:14;;;;;;;0.68;0.60;;;;;;;;;;5074690;27;93063;-62
2022/07/16 13:08:41;;;;;;;0.85;0.52;;;;;;;;;;5077822;27;93337;-62
2022/07/16 13:11:08;;;;;;;0.85;0.50;;;;;;;;;;5063611;27;92291;-62
2022/07/16 13:13:36;;;;;;;0.50;0.50;;;;;;;;;;5060338;27;92683;-62
2022/07/16 13:16:03;;;;;;;2.67;0.57;;;;;;;;;;5078484;27;92415;-62
2022/07/16 13:18:30;;;;;;;0.60;0.50;;;;;;;;;;5077705;27;94199;-63
2022/07/16 13:20:58;;;;;;;0.40;0.30;;;;;;;;;;5075862;27;96082;-62
2022/07/16 13:23:24;;;;;;;0.43;0.40;;;;;;;;;;5077673;27;92476;-62
2022/07/16 13:25:51;;;;;;;0.50;0.50;;;;;;;;;;5077712;27;92944;-62
2022/07/16 13:28:18;;;;;;;1.02;0.40;;;;;;;;;;5077998;27;94098;-62
2022/07/16 13:30:44;;;;;;;0.50;0.50;;;;;;;;;;5077903;27;92454;-62
2022/07/16 13:33:11;;;;;;;1.50;0.65;;;;;;;;;;5062623;27;93399;-62
2022/07/16 13:35:38;;;;;;;0.73;0.50;;;;;;;;;;5077121;27;92520;-62
2022/07/16 13:38:05;;;;;;;0.63;0.50;;;;;;;;;;5078245;27;93673;-62
2022/07/16 13:40:32;;;;;;;0.95;0.55;;;;;;;;;;5059548;27;93571;-62
2022/07/16 13:42:59;;;;;;;0.93;0.45;;;;;;;;;;5077970;27;92371;-62
2022/07/16 13:45:25;;;;;;;0.77;0.57;;;;;;;;;;5076922;27;94866;-62
2022/07/16 13:47:51;;;;;;;0.50;0.50;;;;;;;;;;5077245;27;94732;-62
2022/07/16 13:50:18;;;;;;;0.90;0.50;;;;;;;;;;5077627;27;92367;-63
2022/07/16 13:52:44;;;;;;;0.50;0.40;;;;;;;;;;5080736;27;94658;-62
2022/07/16 13:55:10;;;;;;;0.40;0.40;;;;;;;;;;5077489;27;92394;-62
2022/07/16 14:00:23;;;;;;;0.68;0.40;;;;;;;;;;5077810;27;93791;-63
2022/07/16 14:02:49;;;;;;;0.40;0.40;;;;;;;;;;5077705;27;91754;-62
2022/07/16 14:05:15;;;;;;;0.32;0.32;;;;;;;;;;5076960;27;92404;-62
2022/07/16 14:07:42;;;;;;;1.48;0.55;;;;;;;;;;5076860;27;93521;-62
2022/07/16 14:10:09;;;;;;;0.40;0.40;;;;;;;;;;5075664;27;94755;-62
2022/07/16 14:12:36;;;;;;;0.40;0.32;;;;;;;;;;5076712;27;95554;-62
2022/07/16 14:15:02;;;;;;;0.75;0.40;;;;;;;;;;5080039;27;93868;-62
2022/07/16 14:17:29;;;;;;;0.63;0.50;;;;;;;;;;5076726;27;93057;-62
2022/07/16 14:19:55;;;;;;;0.25;0.25;;;;;;;;;;5075978;27;93944;-62
2022/07/16 14:22:22;;;;;;;0.40;0.40;;;;;;;;;;5077155;27;92410;-63
2022/07/16 14:24:48;;;;;;;1.27;0.43;;;;;;;;;;5076986;27;93197;-62
2022/07/16 14:27:14;;;;;;;1.13;0.45;;;;;;;;;;5077310;27;92544;-62
2022/07/16 14:29:40;;;;;;;0.28;0.28;;;;;;;;;;5076406;27;92321;-62
2022/07/16 14:32:09;;;;;;;0.38;0.38;;;;;;;;;;5076785;27;93170;-62
2022/07/16 14:34:35;;;;;;;1.80;0.50;;;;;;;;;;5074858;27;96697;-62
2022/07/16 14:37:02;;;;;;;0.55;0.40;;;;;;;;;;5080072;27;92380;-62
2022/07/16 14:39:28;;;;;;;0.80;0.47;;;;;;;;;;5076332;27;93897;-62
2022/07/16 14:41:55;;;;;;;0.35;0.30;;;;;;;;;;5076751;27;92409;-62
2022/07/16 14:44:21;;;;;;;0.30;0.30;;;;;;;;;;5076438;27;94220;-62
2022/07/16 14:46:48;;;;;;;3.20;0.60;;;;;;;;;;5076904;27;93201;-62
2022/07/16 14:49:21;;;;;;;0.60;0.43;;;;;;;;;;5076409;27;92969;-62
2022/07/16 14:51:48;;;;;;;0.50;0.50;;;;;;;;;;5077020;27;92964;-62
2022/07/16 14:54:14;;;;;;;0.30;0.30;;;;;;;;;;5076981;27;93656;-62
2022/07/16 14:56:40;;;;;;;1.48;0.50;;;;;;;;;;5076185;27;92442;-62
2022/07/16 14:59:07;;;;;;;0.93;0.40;;;;;;;;;;5077524;27;94786;-63
2022/07/16 15:01:33;;;;;;;1.13;0.50;;;;;;;;;;5076755;27;92472;-62